createdAt,value
2023-04-18T00:00:17.611Z,12.32
2023-04-18T00:02:51.619Z,12.50
2023-04-18T00:05:23.674Z,12.18
2023-04-18T00:07:52.041Z,12.07
2023-04-18T00:10:20.706Z,12.60
2023-04-18T00:12:49.002Z,11.90
2023-04-18T00:15:16.231Z,12.52
2023-04-18T00:17:43.543Z,12.02
2023-04-18T00:20:12.588Z,12.05
2023-04-18T00:22:46.716Z,11.85
2023-04-18T00:25:14.967Z,11.70
2023-04-18T00:27:42.554Z,11.77
2023-04-18T00:30:10.761Z,11.48
2023-04-18T00:32:39.077Z,11.35
2023-04-18T00:35:07.617Z,11.48
2023-04-18T00:37:35.853Z,11.32
2023-04-18T00:40:05.526Z,11.57
2023-04-18T00:42:34.147Z,11.00
2023-04-18T00:45:01.676Z,11.88
2023-04-18T00:47:31.340Z,10.95
2023-04-18T00:49:59.502Z,10.88
2023-04-18T00:52:27.663Z,11.45
2023-04-18T00:54:55.740Z,11.60
2023-04-18T00:57:23.393Z,11.68
2023-04-18T00:59:52.028Z,12.55
2023-04-18T01:02:22.827Z,11.38
2023-04-18T01:04:50.768Z,11.30
2023-04-18T01:07:18.460Z,11.68
2023-04-18T01:09:46.320Z,10.95
2023-04-18T01:12:13.570Z,11.23
2023-04-18T01:14:44.084Z,11.07
2023-04-18T01:17:13.259Z,11.75
2023-04-18T01:19:41.034Z,10.93
2023-04-18T01:22:10.459Z,11.00
2023-04-18T01:24:38.100Z,11.15
2023-04-18T01:27:05.855Z,10.95
2023-04-18T01:29:34.197Z,11.00
2023-04-18T01:32:02.624Z,10.80
2023-04-18T01:34:30.205Z,10.38
2023-04-18T01:36:57.590Z,10.82
2023-04-18T01:39:24.822Z,10.77
2023-04-18T01:41:52.878Z,11.20
2023-04-18T01:44:20.241Z,11.23
2023-04-18T01:46:47.858Z,10.30
2023-04-18T01:49:16.472Z,11.05
2023-04-18T01:51:43.943Z,11.35
2023-04-18T01:54:11.156Z,10.45
2023-04-18T01:56:38.546Z,10.27
2023-04-18T01:59:06.323Z,10.60
2023-04-18T02:01:33.971Z,10.80
2023-04-18T02:04:01.425Z,10.55
2023-04-18T02:06:28.714Z,10.68
2023-04-18T02:08:56.074Z,11.20
2023-04-18T02:11:25.608Z,10.90
2023-04-18T02:13:52.904Z,10.02
2023-04-18T02:16:24.103Z,10.30
2023-04-18T02:18:52.444Z,10.52
2023-04-18T02:21:22.076Z,10.57
2023-04-18T02:23:57.026Z,10.55
2023-04-18T02:26:24.620Z,10.05
2023-04-18T02:28:51.909Z,9.63
2023-04-18T02:31:19.214Z,9.30
2023-04-18T02:33:48.046Z,10.27
2023-04-18T02:36:15.594Z,10.43
2023-04-18T02:38:43.260Z,10.80
2023-04-18T02:41:17.521Z,9.75
2023-04-18T02:43:45.521Z,10.48
2023-04-18T02:46:15.120Z,9.93
2023-04-18T02:48:45.369Z,10.27
2023-04-18T02:51:13.720Z,9.57
2023-04-18T02:53:40.996Z,10.35
2023-04-18T02:56:08.414Z,9.77
2023-04-18T02:58:54.373Z,10.43
2023-04-18T03:01:40.433Z,10.55
2023-04-18T03:04:15.180Z,9.32
2023-04-18T03:07:11.025Z,9.48
2023-04-18T03:09:39.888Z,9.80
2023-04-18T03:12:16.908Z,10.48
2023-04-18T03:14:44.503Z,9.57
2023-04-18T03:17:13.805Z,11.00
2023-04-18T03:19:45.432Z,9.85
2023-04-18T03:22:15.896Z,10.25
2023-04-18T03:24:51.271Z,10.70
2023-04-18T03:27:19.862Z,10.27
2023-04-18T03:29:48.323Z,10.32
2023-04-18T03:32:17.346Z,10.70
2023-04-18T03:34:45.088Z,9.77
2023-04-18T03:37:12.914Z,9.73
2023-04-18T03:39:45.997Z,10.57
2023-04-18T03:42:13.955Z,10.73
2023-04-18T03:44:42.573Z,10.60
2023-04-18T03:47:10.305Z,10.68
2023-04-18T03:49:41.585Z,10.60
2023-04-18T03:52:09.182Z,10.90
2023-04-18T03:54:36.349Z,10.95
2023-04-18T03:57:04.731Z,11.05
2023-04-18T03:59:33.421Z,10.75
2023-04-18T04:02:01.084Z,11.15
2023-04-18T04:04:28.654Z,11.35
2023-04-18T04:06:58.094Z,10.80
2023-04-18T04:09:25.917Z,11.30
2023-04-18T04:11:53.299Z,10.98
2023-04-18T04:14:21.534Z,10.52
2023-04-18T04:16:49.302Z,10.32
2023-04-18T04:19:17.852Z,10.35
2023-04-18T04:21:54.341Z,10.90
2023-04-18T04:24:23.048Z,10.90
2023-04-18T04:26:51.888Z,11.63
2023-04-18T04:29:23.773Z,11.10
2023-04-18T04:31:52.749Z,11.25
2023-04-18T04:34:29.649Z,12.23
2023-04-18T04:36:57.628Z,10.88
2023-04-18T04:39:27.224Z,10.82
2023-04-18T04:42:13.466Z,11.05
2023-04-18T04:44:53.573Z,11.23
2023-04-18T04:47:22.356Z,11.35
2023-04-18T04:49:49.562Z,11.52
2023-04-18T04:52:16.752Z,10.60
2023-04-18T04:54:45.781Z,11.30
2023-04-18T04:57:15.535Z,11.45
2023-04-18T04:59:42.914Z,10.38
2023-04-18T05:02:11.641Z,11.95
2023-04-18T05:04:39.518Z,11.65
2023-04-18T05:07:07.287Z,10.35
2023-04-18T05:09:34.810Z,11.52
2023-04-18T05:12:01.957Z,11.15
2023-04-18T05:14:29.211Z,11.32
2023-04-18T05:16:56.629Z,11.50
2023-04-18T05:19:26.494Z,10.73
2023-04-18T05:21:53.694Z,11.48
2023-04-18T05:24:21.234Z,11.32
2023-04-18T05:26:49.032Z,11.32
2023-04-18T05:29:16.147Z,11.57
2023-04-18T05:31:43.339Z,11.40
2023-04-18T05:34:13.547Z,11.38
2023-04-18T05:36:41.328Z,10.85
2023-04-18T05:39:08.622Z,11.00
2023-04-18T05:41:35.788Z,11.07
2023-04-18T05:44:05.786Z,11.25
2023-04-18T05:46:33.791Z,11.77
2023-04-18T05:49:01.881Z,11.00
2023-04-18T05:51:29.224Z,11.43
2023-04-18T05:53:56.704Z,11.60
2023-04-18T05:56:24.067Z,11.63
2023-04-18T05:58:51.460Z,10.93
2023-04-18T06:01:18.972Z,11.48
2023-04-18T06:03:46.455Z,11.50
2023-04-18T06:06:14.328Z,11.70
2023-04-18T06:08:41.778Z,11.40
2023-04-18T06:11:09.087Z,11.27
2023-04-18T06:13:37.368Z,11.50
2023-04-18T06:16:05.925Z,12.40
2023-04-18T06:18:33.596Z,11.48
2023-04-18T06:21:00.860Z,12.00
2023-04-18T06:23:28.109Z,11.15
2023-04-18T06:25:58.024Z,12.13
2023-04-18T06:28:27.044Z,11.18
2023-04-18T06:30:54.196Z,11.80
2023-04-18T06:33:21.518Z,11.02
2023-04-18T06:35:49.079Z,11.07
2023-04-18T06:38:16.488Z,11.57
2023-04-18T06:40:43.710Z,11.73
2023-04-18T06:43:11.065Z,11.50
2023-04-18T06:45:40.534Z,11.43
2023-04-18T06:48:09.132Z,11.77
2023-04-18T06:50:36.588Z,11.30
2023-04-18T06:53:03.784Z,11.65
2023-04-18T06:55:31.404Z,11.82
2023-04-18T06:58:00.491Z,11.82
2023-04-18T07:00:27.944Z,11.20
2023-04-18T07:02:55.331Z,12.10
2023-04-18T07:05:23.453Z,11.32
2023-04-18T07:07:51.554Z,11.32
2023-04-18T07:10:18.962Z,11.18
2023-04-18T07:12:47.482Z,10.52
2023-04-18T07:15:14.849Z,11.38
2023-04-18T07:17:42.100Z,11.43
2023-04-18T07:20:12.355Z,11.73
2023-04-18T07:22:42.035Z,10.98
2023-04-18T07:25:15.784Z,10.38
2023-04-18T07:27:43.192Z,11.63
2023-04-18T07:30:11.369Z,11.52
2023-04-18T07:32:38.797Z,11.55
2023-04-18T07:35:06.806Z,11.15
2023-04-18T07:37:36.054Z,11.63
2023-04-18T07:40:04.778Z,12.07
2023-04-18T07:42:32.066Z,10.85
2023-04-18T07:44:59.613Z,11.77
2023-04-18T07:47:30.284Z,11.82
2023-04-18T07:49:58.525Z,11.65
2023-04-18T07:52:25.968Z,11.63
2023-04-18T07:54:53.260Z,11.50
2023-04-18T07:57:20.886Z,12.20
2023-04-18T07:59:48.256Z,11.43
2023-04-18T08:02:16.287Z,11.18
2023-04-18T08:04:43.836Z,11.25
2023-04-18T08:07:11.441Z,10.93
2023-04-18T08:09:38.976Z,11.57
2023-04-18T08:12:06.757Z,11.43
2023-04-18T08:14:34.476Z,11.63
2023-04-18T08:17:01.973Z,11.27
2023-04-18T08:19:30.476Z,11.48
2023-04-18T08:22:11.194Z,11.18
2023-04-18T08:24:39.605Z,10.30
2023-04-18T08:27:07.586Z,9.90
2023-04-18T08:29:34.841Z,10.05
2023-04-18T08:32:02.314Z,10.18
2023-04-18T08:34:34.021Z,10.73
2023-04-18T08:37:02.124Z,10.43
2023-04-18T08:39:31.121Z,11.30
2023-04-18T08:42:00.784Z,10.77
2023-04-18T08:44:29.703Z,10.52
2023-04-18T08:46:57.811Z,10.43
2023-04-18T08:49:25.788Z,11.02
2023-04-18T08:51:53.523Z,11.02
2023-04-18T08:54:22.538Z,11.02
2023-04-18T08:57:16.896Z,11.35
2023-04-18T08:59:48.258Z,11.43
2023-04-18T09:02:17.909Z,11.02
2023-04-18T09:04:52.637Z,11.48
2023-04-18T09:07:28.619Z,11.65
2023-04-18T09:09:58.183Z,11.70
2023-04-18T09:12:27.946Z,11.45
2023-04-18T09:15:16.882Z,11.93
2023-04-18T09:17:50.986Z,12.05
2023-04-18T09:20:41.446Z,12.20
2023-04-18T09:23:14.778Z,12.65
2023-04-18T09:25:45.015Z,12.00
2023-04-18T09:28:28.072Z,11.30
2023-04-18T09:31:15.398Z,11.20
2023-04-18T09:33:56.813Z,11.00
2023-04-18T09:36:27.713Z,11.57
2023-04-18T09:38:57.247Z,11.15
2023-04-18T09:41:24.866Z,11.40
2023-04-18T09:44:15.879Z,10.85
2023-04-18T09:46:47.419Z,10.60
2023-04-18T09:49:16.804Z,10.57
2023-04-18T09:51:46.142Z,10.85
2023-04-18T09:54:18.390Z,10.90
2023-04-18T09:56:50.775Z,10.35
2023-04-18T09:59:32.723Z,10.57
2023-04-18T10:02:03.745Z,10.77
2023-04-18T10:04:32.932Z,10.32
2023-04-18T10:07:01.994Z,10.10
2023-04-18T10:09:33.959Z,9.77
2023-04-18T10:12:02.676Z,9.77
2023-04-18T10:14:33.777Z,9.32
2023-04-18T10:17:01.797Z,8.77
2023-04-18T10:19:30.300Z,8.45
2023-04-18T10:22:01.478Z,8.57
2023-04-18T10:24:56.338Z,8.80
2023-04-18T10:27:49.158Z,7.68
2023-04-18T10:30:18.934Z,7.97
2023-04-18T10:32:46.944Z,8.13
2023-04-18T10:35:14.821Z,8.00
2023-04-18T10:37:52.463Z,8.32
2023-04-18T10:40:34.563Z,7.88
2023-04-18T10:43:02.511Z,8.95
2023-04-18T10:45:36.263Z,7.97
2023-04-18T10:48:30.213Z,7.75
2023-04-18T10:51:20.796Z,7.80
2023-04-18T10:54:00.346Z,7.97
2023-04-18T10:56:29.016Z,7.60
2023-04-18T10:59:03.511Z,7.57
2023-04-18T11:01:36.525Z,7.38
2023-04-18T11:04:13.971Z,6.90
2023-04-18T11:06:55.056Z,7.10
2023-04-18T11:09:22.615Z,7.20
2023-04-18T11:12:10.935Z,7.07
2023-04-18T11:14:51.925Z,6.90
2023-04-18T11:17:32.860Z,6.80
2023-04-18T11:20:15.607Z,6.45
2023-04-18T11:23:00.973Z,5.97
2023-04-18T11:25:36.457Z,5.47
2023-04-18T11:28:04.988Z,6.22
2023-04-18T11:30:42.667Z,6.20
2023-04-18T11:33:13.166Z,6.05
2023-04-18T11:35:46.639Z,5.50
2023-04-18T11:38:16.589Z,5.68
2023-04-18T11:40:51.025Z,5.80
2023-04-18T11:43:25.567Z,6.13
2023-04-18T11:46:03.420Z,5.53
2023-04-18T11:48:41.300Z,5.70
2023-04-18T11:51:35.587Z,5.82
2023-04-18T11:54:02.906Z,6.00
2023-04-18T11:56:33.997Z,5.95
2023-04-18T11:59:09.937Z,5.82
2023-04-18T12:01:37.851Z,6.40
2023-04-18T12:04:08.159Z,5.90
2023-04-18T12:06:53.981Z,5.75
2023-04-18T12:09:25.034Z,5.30
2023-04-18T12:12:03.976Z,5.80
2023-04-18T12:14:31.274Z,5.68
2023-04-18T12:16:58.562Z,6.05
2023-04-18T12:19:30.278Z,6.20
2023-04-18T12:22:05.287Z,6.03
2023-04-18T12:24:34.029Z,5.93
2023-04-18T12:27:02.077Z,5.95
2023-04-18T12:29:29.874Z,5.60
2023-04-18T12:32:03.484Z,5.38
2023-04-18T12:34:31.035Z,5.53
2023-04-18T12:36:58.495Z,5.30
2023-04-18T12:39:26.023Z,5.22
2023-04-18T12:41:53.318Z,5.00
2023-04-18T12:44:21.000Z,5.80
2023-04-18T12:46:48.478Z,5.72
2023-04-18T12:49:15.982Z,5.68
2023-04-18T12:51:43.671Z,4.90
2023-04-18T12:54:10.988Z,5.05
2023-04-18T12:56:38.368Z,5.05
2023-04-18T12:59:05.742Z,4.75
2023-04-18T13:01:33.286Z,4.88
2023-04-18T13:04:11.589Z,4.65
2023-04-18T13:06:40.445Z,4.50
2023-04-18T13:09:08.206Z,4.22
2023-04-18T13:11:35.485Z,4.35
2023-04-18T13:14:02.796Z,4.40
2023-04-18T13:16:30.841Z,4.60
2023-04-18T13:18:58.308Z,4.55
2023-04-18T13:21:25.989Z,4.60
2023-04-18T13:24:18.919Z,4.38
2023-04-18T13:26:47.205Z,4.22
2023-04-18T13:29:14.706Z,3.95
2023-04-18T13:31:42.436Z,4.40
2023-04-18T13:34:13.871Z,4.25
2023-04-18T13:36:41.523Z,4.40
2023-04-18T13:39:09.251Z,4.10
2023-04-18T13:41:36.889Z,4.28
2023-04-18T13:44:04.744Z,4.70
2023-04-18T13:46:32.502Z,3.83
2023-04-18T13:49:00.188Z,4.20
2023-04-18T13:51:29.960Z,3.55
2023-04-18T13:53:57.560Z,3.50
2023-04-18T13:56:25.430Z,3.55
2023-04-18T13:58:53.140Z,3.80
2023-04-18T14:01:21.115Z,3.70
2023-04-18T14:03:49.325Z,3.95
2023-04-18T14:06:17.609Z,3.78
2023-04-18T14:08:45.760Z,4.05
2023-04-18T14:11:13.396Z,3.67
2023-04-18T14:13:41.132Z,3.90
2023-04-18T14:16:09.250Z,4.75
2023-04-18T14:18:36.940Z,4.22
2023-04-18T14:21:05.570Z,4.05
2023-04-18T14:23:36.714Z,3.58
2023-04-18T14:26:05.691Z,3.53
2023-04-18T14:28:58.665Z,4.13
2023-04-18T14:31:28.146Z,4.53
2023-04-18T14:33:55.449Z,3.88
2023-04-18T14:36:23.084Z,4.20
2023-04-18T14:38:50.425Z,4.03
2023-04-18T14:41:17.919Z,4.95
2023-04-18T14:43:45.800Z,4.28
2023-04-18T14:46:16.655Z,4.15
2023-04-18T14:48:48.014Z,4.30
2023-04-18T14:51:16.929Z,3.90
2023-04-18T14:53:45.590Z,4.20
2023-04-18T14:56:13.665Z,4.22
2023-04-18T14:58:41.144Z,3.90
2023-04-18T15:01:08.885Z,3.90
2023-04-18T15:03:36.526Z,3.90
2023-04-18T15:06:04.918Z,4.15
2023-04-18T15:08:33.020Z,3.83
2023-04-18T15:11:01.483Z,3.85
2023-04-18T15:13:29.144Z,3.67
2023-04-18T15:15:57.765Z,3.60
2023-04-18T15:18:25.486Z,3.90
2023-04-18T15:20:53.928Z,3.63
2023-04-18T15:23:21.641Z,3.28
2023-04-18T15:25:49.634Z,3.30
2023-04-18T15:28:18.720Z,3.38
2023-04-18T15:30:46.413Z,3.28
2023-04-18T15:33:14.439Z,3.35
2023-04-18T15:35:41.763Z,3.30
2023-04-18T15:38:09.484Z,3.97
2023-04-18T15:40:37.925Z,2.80
2023-04-18T15:43:06.007Z,3.67
2023-04-18T15:45:33.981Z,3.78
2023-04-18T15:48:02.273Z,3.83
2023-04-18T15:50:31.482Z,4.07
2023-04-18T15:53:00.540Z,4.50
2023-04-18T15:55:28.040Z,4.25
2023-04-18T15:57:55.695Z,3.97
2023-04-18T16:00:23.817Z,3.55
2023-04-18T16:02:52.004Z,4.00
2023-04-18T16:05:23.690Z,3.95
2023-04-18T16:07:53.856Z,4.03
2023-04-18T16:10:21.930Z,3.63
2023-04-18T16:12:49.358Z,3.45
2023-04-18T16:15:16.843Z,3.70
2023-04-18T16:17:44.234Z,3.90
2023-04-18T16:20:11.847Z,4.13
2023-04-18T16:22:39.113Z,3.90
2023-04-18T16:25:08.157Z,3.83
2023-04-18T16:27:35.782Z,3.70
2023-04-18T16:30:04.334Z,4.40
2023-04-18T16:32:32.711Z,4.28
2023-04-18T16:35:00.320Z,4.45
2023-04-18T16:37:28.400Z,4.38
2023-04-18T16:39:56.068Z,4.63
2023-04-18T16:42:23.322Z,4.57
2023-04-18T16:44:50.667Z,5.38
2023-04-18T16:47:18.511Z,4.60
2023-04-18T16:49:51.521Z,5.40
2023-04-18T16:52:19.359Z,5.05
2023-04-18T16:54:46.641Z,5.32
2023-04-18T16:57:14.791Z,5.10
2023-04-18T16:59:42.233Z,5.03
2023-04-18T17:02:09.942Z,5.43
2023-04-18T17:04:37.942Z,4.80
2023-04-18T17:07:05.504Z,5.00
2023-04-18T17:09:33.078Z,5.32
2023-04-18T17:12:01.666Z,5.07
2023-04-18T17:14:28.982Z,5.60
2023-04-18T17:16:56.438Z,5.20
2023-04-18T17:19:26.379Z,5.05
2023-04-18T17:21:53.982Z,4.30
2023-04-18T17:24:22.750Z,5.03
2023-04-18T17:26:50.364Z,5.15
2023-04-18T17:29:18.503Z,5.32
2023-04-18T17:31:46.021Z,4.70
2023-04-18T17:34:13.626Z,5.30
2023-04-18T17:36:41.288Z,5.03
2023-04-18T17:39:09.626Z,4.60
2023-04-18T17:41:39.217Z,4.97
2023-04-18T17:44:08.238Z,5.22
2023-04-18T17:46:36.306Z,5.60
2023-04-18T17:49:34.342Z,5.15
2023-04-18T17:52:02.744Z,5.20
2023-04-18T17:54:30.680Z,5.50
2023-04-18T17:56:58.454Z,4.97
2023-04-18T17:59:26.436Z,5.50
2023-04-18T18:01:57.939Z,5.45
2023-04-18T18:04:29.409Z,5.03
2023-04-18T18:06:58.596Z,5.30
2023-04-18T18:09:26.872Z,5.00
2023-04-18T18:11:55.912Z,5.50
2023-04-18T18:14:23.724Z,5.00
2023-04-18T18:16:51.245Z,4.78
2023-04-18T18:19:20.590Z,5.25
2023-04-18T18:21:48.144Z,5.20
2023-04-18T18:24:19.044Z,5.15
2023-04-18T18:26:46.519Z,5.50
2023-04-18T18:29:14.171Z,5.20
2023-04-18T18:31:42.827Z,5.38
2023-04-18T18:34:14.044Z,5.35
2023-04-18T18:36:41.531Z,5.38
2023-04-18T18:39:09.039Z,5.68
2023-04-18T18:41:36.380Z,5.82
2023-04-18T18:44:03.625Z,5.55
2023-04-18T18:46:31.265Z,6.18
2023-04-18T18:48:58.623Z,6.00
2023-04-18T18:51:26.356Z,5.90
2023-04-18T18:53:53.643Z,6.10
2023-04-18T18:56:22.337Z,5.60
2023-04-18T18:58:50.270Z,5.20
2023-04-18T19:01:23.789Z,5.18
2023-04-18T19:03:51.639Z,5.63
2023-04-18T19:06:21.854Z,5.32
2023-04-18T19:08:49.559Z,5.70
2023-04-18T19:11:18.844Z,5.78
2023-04-18T19:13:46.766Z,6.10
2023-04-18T19:16:14.202Z,6.60
2023-04-18T19:18:46.815Z,6.22
2023-04-18T19:21:14.211Z,6.20
2023-04-18T19:23:42.347Z,6.22
2023-04-18T19:26:12.385Z,6.53
2023-04-18T19:28:55.850Z,6.20
2023-04-18T19:31:43.845Z,6.68
2023-04-18T19:34:14.287Z,5.63
2023-04-18T19:36:41.879Z,6.80
2023-04-18T19:39:09.772Z,6.35
2023-04-18T19:41:37.506Z,6.93
2023-04-18T19:44:07.866Z,6.70
2023-04-18T19:46:35.672Z,6.60
2023-04-18T19:49:06.733Z,6.55
2023-04-18T19:51:34.435Z,6.53
2023-04-18T19:54:02.340Z,6.53
2023-04-18T19:56:29.778Z,6.68
2023-04-18T19:58:58.112Z,6.82
2023-04-18T20:01:25.993Z,6.90
2023-04-18T20:04:08.193Z,6.25
2023-04-18T20:06:58.638Z,6.47
2023-04-18T20:09:26.180Z,6.55
2023-04-18T20:11:54.327Z,6.30
2023-04-18T20:14:21.810Z,7.50
2023-04-18T20:16:49.901Z,6.60
2023-04-18T20:19:19.713Z,6.55
2023-04-18T20:21:47.041Z,6.28
2023-04-18T20:24:15.620Z,6.97
2023-04-18T20:26:43.938Z,7.28
2023-04-18T20:29:11.252Z,7.00
2023-04-18T20:31:42.292Z,6.72
2023-04-18T20:34:13.988Z,7.10
2023-04-18T20:36:41.899Z,7.07
2023-04-18T20:39:09.860Z,7.13
2023-04-18T20:41:39.566Z,7.00
2023-04-18T20:44:13.049Z,6.70
2023-04-18T20:46:42.232Z,6.75
2023-04-18T20:49:13.640Z,7.07
2023-04-18T20:51:41.518Z,7.07
2023-04-18T20:54:09.005Z,7.25
2023-04-18T20:56:38.786Z,7.05
2023-04-18T20:59:06.041Z,7.57
2023-04-18T21:01:33.805Z,7.05
2023-04-18T21:04:02.618Z,7.57
2023-04-18T21:06:31.278Z,7.18
2023-04-18T21:08:58.903Z,7.32
2023-04-18T21:11:26.626Z,7.13
2023-04-18T21:13:54.090Z,7.22
2023-04-18T21:16:21.753Z,6.68
2023-04-18T21:18:49.376Z,7.07
2023-04-18T21:21:17.873Z,7.40
2023-04-18T21:23:46.379Z,7.35
2023-04-18T21:26:17.945Z,7.50
2023-04-18T21:29:04.341Z,7.00
2023-04-18T21:31:39.872Z,7.32
2023-04-18T21:34:14.170Z,6.80
2023-04-18T21:36:41.883Z,7.75
2023-04-18T21:39:09.086Z,7.38
2023-04-18T21:41:36.489Z,6.97
2023-04-18T21:44:04.160Z,7.95
2023-04-18T21:46:31.744Z,7.00
2023-04-18T21:48:59.511Z,7.68
2023-04-18T21:51:27.310Z,7.55
2023-04-18T21:53:54.928Z,7.47
2023-04-18T21:56:22.682Z,7.93
2023-04-18T21:58:50.521Z,8.05
2023-04-18T22:01:18.149Z,7.60
2023-04-18T22:03:46.270Z,7.57
2023-04-18T22:06:14.018Z,8.00
2023-04-18T22:08:42.064Z,7.50
2023-04-18T22:11:11.625Z,8.20
2023-04-18T22:13:38.957Z,8.07
2023-04-18T22:16:10.800Z,7.40
2023-04-18T22:18:42.148Z,7.30
2023-04-18T22:21:10.050Z,7.68
2023-04-18T22:23:37.674Z,7.20
2023-04-18T22:26:06.243Z,7.43
2023-04-18T22:28:33.999Z,7.00
2023-04-18T22:31:01.461Z,7.63
2023-04-18T22:33:28.951Z,7.93
2023-04-18T22:35:56.260Z,7.60
2023-04-18T22:38:26.053Z,7.78
2023-04-18T22:40:53.556Z,7.60
2023-04-18T22:43:23.593Z,7.65
2023-04-18T22:45:51.736Z,7.90
2023-04-18T22:48:19.497Z,8.00
2023-04-18T22:50:47.289Z,7.55
2023-04-18T22:53:16.491Z,7.50
2023-04-18T22:55:46.227Z,7.45
2023-04-18T22:58:14.236Z,8.25
2023-04-18T23:00:41.798Z,7.95
2023-04-18T23:03:09.599Z,7.93
2023-04-18T23:05:37.488Z,7.95
2023-04-18T23:08:08.801Z,8.15
2023-04-18T23:10:36.592Z,8.35
2023-04-18T23:13:04.192Z,8.18
2023-04-18T23:15:31.430Z,8.80
2023-04-18T23:17:58.827Z,8.40
2023-04-18T23:20:26.620Z,7.90
2023-04-18T23:22:56.065Z,8.65
2023-04-18T23:25:23.996Z,8.57
2023-04-18T23:27:52.361Z,9.10
2023-04-18T23:30:19.788Z,8.40
2023-04-18T23:32:47.070Z,8.20
2023-04-18T23:35:14.901Z,7.90
2023-04-18T23:37:42.694Z,7.82
2023-04-18T23:40:11.015Z,8.55
2023-04-18T23:42:38.716Z,9.20
2023-04-18T23:45:07.036Z,9.25
2023-04-18T23:47:35.491Z,8.55
2023-04-18T23:50:03.294Z,9.13
2023-04-18T23:52:30.709Z,9.23
2023-04-18T23:55:02.043Z,8.65
2023-04-18T23:57:29.607Z,8.75
2023-04-18T23:59:57.405Z,9.30
